createdAt,value
2017-08-29T00:01:50.326Z,16.60
2017-08-29T00:04:48.953Z,16.03
2017-08-29T00:07:46.462Z,15.03
2017-08-29T00:10:44.061Z,15.10
2017-08-29T00:13:44.678Z,16.20
2017-08-29T00:16:42.394Z,15.10
2017-08-29T00:19:46.108Z,15.37
2017-08-29T00:22:48.858Z,15.70
2017-08-29T00:25:47.463Z,15.90
2017-08-29T00:28:45.103Z,15.83
2017-08-29T00:31:42.607Z,15.10
2017-08-29T00:34:42.196Z,15.50
2017-08-29T00:37:45.889Z,15.30
2017-08-29T00:40:43.746Z,15.70
2017-08-29T00:43:41.292Z,15.33
2017-08-29T00:46:38.911Z,14.83
2017-08-29T00:49:43.491Z,13.77
2017-08-29T00:52:41.202Z,14.70
2017-08-29T00:55:46.918Z,14.73
2017-08-29T00:58:44.367Z,14.33
2017-08-29T01:01:41.815Z,14.53
2017-08-29T01:04:42.391Z,15.00
2017-08-29T01:07:43.008Z,14.20
2017-08-29T01:10:42.513Z,15.67
2017-08-29T01:13:42.234Z,15.20
2017-08-29T01:16:39.642Z,14.90
2017-08-29T01:19:37.319Z,14.90
2017-08-29T01:22:41.736Z,14.63
2017-08-29T01:25:41.535Z,14.93
2017-08-29T01:28:40.228Z,15.53
2017-08-29T01:31:42.203Z,15.20
2017-08-29T01:34:41.971Z,15.80
2017-08-29T01:37:42.594Z,16.40
2017-08-29T01:40:46.294Z,15.47
2017-08-29T01:43:46.736Z,15.00
2017-08-29T01:46:46.427Z,15.97
2017-08-29T01:49:45.914Z,15.30
2017-08-29T01:52:46.679Z,15.87
2017-08-29T01:55:47.237Z,14.93
2017-08-29T01:58:48.077Z,14.37
2017-08-29T02:01:45.762Z,14.10
2017-08-29T02:04:46.388Z,13.50
2017-08-29T02:07:45.006Z,12.70
2017-08-29T02:10:52.571Z,12.20
2017-08-29T02:13:52.247Z,12.03
2017-08-29T02:20:14.801Z,11.33
2017-08-29T02:23:13.293Z,12.30
2017-08-29T02:26:12.059Z,12.47
2017-08-29T02:29:11.762Z,12.57
2017-08-29T02:35:38.008Z,10.70
2017-08-29T02:38:36.540Z,11.60
2017-08-29T02:41:35.191Z,11.93
2017-08-29T02:44:33.617Z,11.97
2017-08-29T02:47:34.180Z,10.80
2017-08-29T02:50:38.793Z,11.87
2017-08-29T02:53:54.517Z,10.93
2017-08-29T02:56:56.279Z,11.40
2017-08-29T03:00:03.707Z,12.13
2017-08-29T03:03:11.395Z,10.50
2017-08-29T03:06:11.077Z,12.10
2017-08-29T03:09:16.713Z,11.60
2017-08-29T03:12:26.382Z,12.10
2017-08-29T03:15:27.197Z,12.50
2017-08-29T03:18:40.922Z,12.97
2017-08-29T03:21:51.731Z,13.20
2017-08-29T03:24:49.267Z,12.70
2017-08-29T03:27:47.012Z,13.40
2017-08-29T03:34:08.097Z,13.00
2017-08-29T03:37:19.647Z,13.73
2017-08-29T03:40:30.299Z,14.20
2017-08-29T03:43:46.957Z,14.70
2017-08-29T03:46:45.527Z,15.00
2017-08-29T03:49:44.115Z,15.63
2017-08-29T03:52:45.932Z,15.10
2017-08-29T03:55:57.482Z,15.90
2017-08-29T03:59:02.990Z,14.50
2017-08-29T04:02:07.691Z,16.80
2017-08-29T04:05:06.358Z,16.67
2017-08-29T04:08:17.819Z,16.90
2017-08-29T04:11:16.587Z,18.70
2017-08-29T04:14:14.270Z,17.20
2017-08-29T04:17:14.980Z,19.03
2017-08-29T04:20:13.674Z,17.97
2017-08-29T04:23:12.245Z,18.57
2017-08-29T04:26:18.031Z,17.60
2017-08-29T04:29:16.795Z,19.43
2017-08-29T04:32:23.502Z,18.50
2017-08-29T04:35:39.192Z,19.43
2017-08-29T04:38:36.737Z,19.30
2017-08-29T04:41:36.353Z,18.57
2017-08-29T04:44:40.066Z,17.60
2017-08-29T04:47:49.484Z,18.57
2017-08-29T04:50:47.031Z,20.57
2017-08-29T04:53:44.475Z,20.10
2017-08-29T04:56:44.986Z,20.37
2017-08-29T04:59:42.773Z,19.30
2017-08-29T05:02:40.288Z,18.30
2017-08-29T05:05:49.982Z,17.60
2017-08-29T05:08:47.483Z,16.57
2017-08-29T05:11:45.167Z,17.17
2017-08-29T05:14:42.691Z,18.17
2017-08-29T05:17:45.316Z,17.67
2017-08-29T05:20:53.892Z,16.90
2017-08-29T05:23:51.310Z,16.17
2017-08-29T05:26:48.698Z,17.67
2017-08-29T05:29:46.326Z,17.03
2017-08-29T05:32:43.959Z,16.30
2017-08-29T05:35:41.395Z,16.50
2017-08-29T05:38:38.870Z,17.43
2017-08-29T05:41:36.370Z,17.30
2017-08-29T05:44:33.728Z,16.07
2017-08-29T05:47:31.197Z,16.00
2017-08-29T05:50:28.767Z,17.17
2017-08-29T05:53:26.375Z,16.23
2017-08-29T05:56:23.836Z,15.83
2017-08-29T05:59:21.245Z,16.77
2017-08-29T06:02:18.694Z,16.20
2017-08-29T06:05:16.242Z,17.00
2017-08-29T06:08:13.806Z,17.00
2017-08-29T06:11:11.342Z,16.33
2017-08-29T06:14:08.868Z,15.83
2017-08-29T06:17:06.282Z,19.00
2017-08-29T06:20:03.876Z,17.67
2017-08-29T06:23:01.522Z,17.83
2017-08-29T06:25:58.984Z,18.00
2017-08-29T06:28:56.647Z,17.87
2017-08-29T06:31:54.155Z,18.00
2017-08-29T06:34:51.765Z,17.90
2017-08-29T06:37:49.316Z,16.80
2017-08-29T06:40:47.171Z,19.00
2017-08-29T06:43:44.762Z,19.20
2017-08-29T06:46:42.432Z,18.03
2017-08-29T06:49:39.870Z,17.50
2017-08-29T06:52:37.459Z,17.37
2017-08-29T06:55:34.884Z,17.20
2017-08-29T06:58:32.216Z,15.67
2017-08-29T07:01:29.660Z,17.20
2017-08-29T07:04:27.307Z,16.10
2017-08-29T07:07:24.763Z,16.63
2017-08-29T07:10:22.460Z,15.47
2017-08-29T07:13:20.061Z,14.63
2017-08-29T07:16:17.699Z,15.03
2017-08-29T07:19:15.174Z,14.23
2017-08-29T07:22:12.835Z,14.50
2017-08-29T07:25:10.463Z,14.13
2017-08-29T07:28:08.286Z,13.80
2017-08-29T07:31:05.823Z,13.60
2017-08-29T07:34:03.387Z,14.40
2017-08-29T07:37:01.810Z,13.37
2017-08-29T07:39:59.278Z,13.70
2017-08-29T07:42:56.806Z,14.17
2017-08-29T07:45:54.491Z,13.27
2017-08-29T07:48:52.214Z,12.23
2017-08-29T07:51:49.750Z,12.97
2017-08-29T07:54:47.212Z,12.13
2017-08-29T07:57:45.709Z,13.20
2017-08-29T08:00:43.378Z,13.07
2017-08-29T08:03:41.012Z,12.73
2017-08-29T08:06:38.575Z,13.23
2017-08-29T08:09:36.147Z,13.57
2017-08-29T08:12:33.785Z,12.80
2017-08-29T08:28:12.131Z,12.50
2017-08-29T08:31:09.924Z,12.20
2017-08-29T08:34:07.591Z,12.80
2017-08-29T08:37:05.179Z,13.00
2017-08-29T08:40:02.800Z,12.80
2017-08-29T08:43:00.500Z,13.00
2017-08-29T08:45:58.245Z,12.60
2017-08-29T08:48:56.041Z,11.47
2017-08-29T08:51:53.515Z,12.40
2017-08-29T08:54:51.186Z,11.50
2017-08-29T08:57:48.953Z,12.70
2017-08-29T09:00:46.647Z,12.23
2017-08-29T09:03:44.316Z,12.57
2017-08-29T09:06:41.906Z,12.10
2017-08-29T09:09:39.584Z,11.73
2017-08-29T09:12:37.101Z,11.90
2017-08-29T09:15:34.740Z,11.70
2017-08-29T09:18:32.276Z,12.13
2017-08-29T09:21:29.979Z,11.70
2017-08-29T09:24:28.101Z,11.93
2017-08-29T09:27:28.981Z,11.77
2017-08-29T09:30:26.168Z,11.77
2017-08-29T09:33:24.208Z,11.40
2017-08-29T09:36:22.083Z,11.07
2017-08-29T09:39:19.075Z,10.63
2017-08-29T09:42:28.905Z,11.33
2017-08-29T09:45:26.364Z,9.97
2017-08-29T09:48:24.116Z,9.77
2017-08-29T09:51:21.719Z,9.97
2017-08-29T09:54:19.278Z,10.33
2017-08-29T09:57:17.049Z,10.00
2017-08-29T10:00:14.807Z,10.30
2017-08-29T10:03:12.279Z,10.10
2017-08-29T10:06:09.894Z,10.37
2017-08-29T10:09:07.655Z,9.97
2017-08-29T10:12:05.481Z,10.10
2017-08-29T10:15:03.511Z,9.40
2017-08-29T10:18:01.271Z,9.30
2017-08-29T10:20:59.267Z,10.07
2017-08-29T10:24:03.035Z,8.87
2017-08-29T10:27:00.701Z,9.67
2017-08-29T10:29:58.710Z,8.83
2017-08-29T10:32:58.499Z,10.00
2017-08-29T10:35:56.207Z,9.40
2017-08-29T10:38:53.713Z,9.07
2017-08-29T10:41:51.563Z,9.50
2017-08-29T10:44:49.224Z,9.70
2017-08-29T10:47:46.728Z,10.00
2017-08-29T10:50:44.400Z,8.70
2017-08-29T10:53:44.988Z,9.93
2017-08-29T10:56:42.675Z,8.87
2017-08-29T10:59:40.276Z,8.70
2017-08-29T11:02:37.835Z,9.33
2017-08-29T11:05:35.428Z,8.57
2017-08-29T11:08:39.136Z,8.90
2017-08-29T11:11:37.729Z,8.93
2017-08-29T11:14:35.302Z,8.80
2017-08-29T11:17:32.771Z,9.87
2017-08-29T11:20:30.300Z,8.90
2017-08-29T11:23:27.926Z,10.00
2017-08-29T11:26:25.627Z,9.37
2017-08-29T11:29:24.067Z,8.93
2017-08-29T11:32:21.623Z,9.60
2017-08-29T11:35:19.416Z,9.97
2017-08-29T11:38:17.260Z,8.70
2017-08-29T11:41:14.903Z,9.70
2017-08-29T11:44:12.258Z,9.10
2017-08-29T11:47:09.843Z,8.30
2017-08-29T11:50:07.339Z,9.50
2017-08-29T11:53:04.707Z,8.93
2017-08-29T11:56:02.543Z,9.73
2017-08-29T11:59:00.160Z,8.93
2017-08-29T12:01:58.083Z,9.40
2017-08-29T12:04:55.547Z,9.20
2017-08-29T12:07:53.267Z,9.20
2017-08-29T12:10:50.808Z,9.20
2017-08-29T12:13:48.436Z,9.33
2017-08-29T12:16:46.353Z,9.20
2017-08-29T12:19:44.210Z,9.20
2017-08-29T12:22:42.000Z,9.63
2017-08-29T12:25:39.132Z,9.00
2017-08-29T12:28:36.923Z,10.00
2017-08-29T12:31:34.006Z,8.80
2017-08-29T12:34:31.952Z,9.53
2017-08-29T12:37:29.700Z,9.77
2017-08-29T12:40:27.185Z,9.57
2017-08-29T12:43:25.778Z,9.23
2017-08-29T12:46:23.328Z,8.43
2017-08-29T12:49:20.872Z,10.47
2017-08-29T12:52:18.604Z,9.13
2017-08-29T12:55:16.485Z,8.57
2017-08-29T12:58:16.267Z,8.67
2017-08-29T13:01:13.231Z,9.50
2017-08-29T13:04:11.031Z,9.37
2017-08-29T13:07:09.115Z,9.37
2017-08-29T13:10:07.179Z,8.37
2017-08-29T13:13:04.862Z,9.70
2017-08-29T13:16:02.492Z,8.90
2017-08-29T13:19:00.111Z,9.63
2017-08-29T13:21:57.936Z,9.33
2017-08-29T13:24:55.799Z,9.20
2017-08-29T13:27:54.173Z,8.67
2017-08-29T13:30:52.095Z,8.47
2017-08-29T13:33:49.542Z,9.00
2017-08-29T13:36:48.404Z,9.43
2017-08-29T13:39:45.965Z,9.20
2017-08-29T13:42:43.896Z,9.10
2017-08-29T13:45:41.494Z,8.73
2017-08-29T13:48:39.218Z,8.60
2017-08-29T13:51:37.036Z,9.77
2017-08-29T13:54:34.803Z,9.90
2017-08-29T13:57:34.563Z,9.23
2017-08-29T14:00:32.148Z,8.40
2017-08-29T14:03:29.312Z,9.20
2017-08-29T14:06:26.823Z,10.00
2017-08-29T14:09:28.406Z,9.23
2017-08-29T14:12:26.228Z,9.20
2017-08-29T14:15:24.084Z,8.90
2017-08-29T14:18:21.931Z,9.50
2017-08-29T14:21:19.796Z,8.43
2017-08-29T14:24:17.347Z,9.23
2017-08-29T14:27:15.020Z,9.67
2017-08-29T14:30:12.152Z,8.90
2017-08-29T14:33:09.940Z,9.90
2017-08-29T14:36:07.647Z,9.10
2017-08-29T14:39:05.029Z,9.40
2017-08-29T14:42:02.788Z,9.70
2017-08-29T14:45:00.555Z,9.60
2017-08-29T14:48:10.268Z,9.57
2017-08-29T14:51:08.037Z,9.27
2017-08-29T14:54:05.801Z,9.83
2017-08-29T14:57:06.241Z,9.73
2017-08-29T15:00:03.888Z,9.30
2017-08-29T15:03:01.576Z,9.60
2017-08-29T15:05:59.318Z,9.47
2017-08-29T15:08:57.171Z,9.57
2017-08-29T15:11:55.603Z,9.07
2017-08-29T15:14:53.231Z,9.93
2017-08-29T15:17:51.049Z,9.10
2017-08-29T15:20:48.676Z,9.30
2017-08-29T15:23:46.303Z,9.57
2017-08-29T15:26:43.960Z,9.20
2017-08-29T15:29:41.687Z,8.90
2017-08-29T15:32:39.257Z,8.40
2017-08-29T15:35:37.070Z,8.90
2017-08-29T15:38:34.780Z,9.47
2017-08-29T15:41:32.391Z,9.37
2017-08-29T15:44:29.907Z,9.20
2017-08-29T15:47:27.904Z,9.30
2017-08-29T15:50:25.537Z,9.03
2017-08-29T15:53:23.218Z,8.90
2017-08-29T15:56:21.188Z,9.20
2017-08-29T15:59:19.964Z,9.80
2017-08-29T16:02:17.913Z,9.10
2017-08-29T16:05:15.772Z,9.00
2017-08-29T16:08:13.301Z,8.57
2017-08-29T16:11:11.071Z,8.87
2017-08-29T16:14:08.729Z,9.23
2017-08-29T16:17:07.417Z,8.80
2017-08-29T16:20:07.987Z,9.00
2017-08-29T16:23:06.493Z,9.50
2017-08-29T16:26:03.928Z,9.57
2017-08-29T16:29:01.488Z,8.30
2017-08-29T16:31:59.023Z,10.53
2017-08-29T16:34:56.473Z,9.67
2017-08-29T16:37:59.983Z,8.83
2017-08-29T16:40:57.600Z,8.53
2017-08-29T16:43:55.390Z,8.50
2017-08-29T16:46:55.060Z,8.60
2017-08-29T16:49:52.961Z,8.60
2017-08-29T16:52:50.539Z,10.13
2017-08-29T16:55:48.346Z,9.67
2017-08-29T16:58:46.300Z,9.50
2017-08-29T17:01:46.223Z,9.37
2017-08-29T17:04:43.781Z,9.50
2017-08-29T17:07:41.448Z,9.60
2017-08-29T17:10:39.019Z,9.43
2017-08-29T17:13:37.713Z,9.67
2017-08-29T17:16:35.720Z,9.00
2017-08-29T17:19:37.550Z,9.57
2017-08-29T17:22:35.248Z,9.70
2017-08-29T17:25:34.072Z,10.27
2017-08-29T17:28:35.937Z,9.50
2017-08-29T17:31:40.521Z,8.73
2017-08-29T17:34:38.040Z,9.17
2017-08-29T17:37:35.568Z,10.10
2017-08-29T17:40:34.096Z,9.50
2017-08-29T17:43:31.992Z,9.80
2017-08-29T17:46:29.726Z,9.90
2017-08-29T17:49:27.677Z,9.80
2017-08-29T17:52:25.120Z,9.63
2017-08-29T17:55:33.937Z,9.80
2017-08-29T17:58:31.173Z,10.27
2017-08-29T18:01:29.178Z,10.17
2017-08-29T18:04:26.668Z,10.80
2017-08-29T18:07:24.417Z,10.87
2017-08-29T18:10:22.244Z,11.10
2017-08-29T18:13:22.080Z,11.23
2017-08-29T18:16:20.645Z,11.17
2017-08-29T18:19:18.309Z,12.33
2017-08-29T18:22:16.331Z,11.30
2017-08-29T18:25:14.259Z,12.03
2017-08-29T18:28:12.103Z,11.87
2017-08-29T18:31:13.912Z,14.50
2017-08-29T18:34:11.715Z,12.10
2017-08-29T18:37:09.278Z,12.37
2017-08-29T18:40:07.825Z,12.00
2017-08-29T18:43:08.386Z,12.23
2017-08-29T18:46:06.831Z,11.50
2017-08-29T18:49:04.468Z,13.10
2017-08-29T18:52:02.219Z,13.90
2017-08-29T18:54:59.864Z,13.70
2017-08-29T18:57:58.536Z,13.63
2017-08-29T19:00:56.066Z,13.50
2017-08-29T19:03:55.632Z,13.00
2017-08-29T19:06:53.079Z,14.83
2017-08-29T19:09:50.724Z,15.77
2017-08-29T19:12:48.203Z,14.60
2017-08-29T19:15:46.810Z,13.93
2017-08-29T19:18:44.608Z,13.60
2017-08-29T19:21:43.856Z,13.30
2017-08-29T19:24:41.622Z,13.60
2017-08-29T19:27:39.535Z,13.83
2017-08-29T19:30:43.056Z,13.80
2017-08-29T19:33:40.608Z,14.17
2017-08-29T19:36:38.548Z,14.30
2017-08-29T19:39:36.295Z,13.77
2017-08-29T19:42:34.904Z,14.77
2017-08-29T19:45:32.554Z,14.60
2017-08-29T19:48:31.313Z,14.37
2017-08-29T19:51:28.853Z,14.37
2017-08-29T19:54:27.544Z,14.87
2017-08-29T19:57:25.265Z,14.40
2017-08-29T20:00:26.950Z,13.97
2017-08-29T20:03:24.451Z,15.13
2017-08-29T20:06:22.004Z,13.77
2017-08-29T20:09:19.668Z,14.67
2017-08-29T20:12:40.485Z,15.40
2017-08-29T20:15:42.072Z,14.93
2017-08-29T20:18:39.719Z,14.80
2017-08-29T20:21:37.284Z,15.07
2017-08-29T20:24:35.955Z,14.47
2017-08-29T20:27:38.575Z,14.53
2017-08-29T20:30:37.130Z,16.00
2017-08-29T20:33:34.584Z,13.90
2017-08-29T20:36:32.151Z,14.50
2017-08-29T20:39:29.711Z,15.63
2017-08-29T20:42:32.452Z,15.40
2017-08-29T20:45:30.160Z,16.17
2017-08-29T20:48:36.819Z,14.37
2017-08-29T20:51:34.827Z,15.00
2017-08-29T20:54:32.532Z,15.03
2017-08-29T20:57:30.004Z,15.57
2017-08-29T21:00:33.600Z,14.57
2017-08-29T21:03:34.289Z,16.10
2017-08-29T21:06:34.980Z,14.90
2017-08-29T21:09:32.801Z,15.07
2017-08-29T21:12:37.631Z,14.83
2017-08-29T21:15:36.324Z,14.50
2017-08-29T21:18:36.081Z,15.57
2017-08-29T21:21:42.811Z,14.73
2017-08-29T21:24:41.616Z,16.77
2017-08-29T21:27:39.385Z,15.90
2017-08-29T21:30:36.906Z,16.50
2017-08-29T21:33:34.596Z,15.20
2017-08-29T21:36:35.099Z,16.00
2017-08-29T21:39:32.813Z,16.07
2017-08-29T21:42:39.573Z,15.37
2017-08-29T21:45:41.201Z,15.87
2017-08-29T21:48:41.041Z,16.00
2017-08-29T21:51:38.773Z,15.50
2017-08-29T21:54:36.393Z,15.53
2017-08-29T21:57:34.137Z,16.17
2017-08-29T22:00:31.687Z,16.07
2017-08-29T22:03:36.383Z,16.23
2017-08-29T22:06:35.872Z,15.57
2017-08-29T22:09:33.440Z,17.47
2017-08-29T22:12:30.965Z,15.97
2017-08-29T22:15:35.729Z,16.47
2017-08-29T22:18:33.480Z,16.00
2017-08-29T22:21:31.359Z,16.27
2017-08-29T22:24:30.031Z,17.33
2017-08-29T22:27:27.763Z,16.67
2017-08-29T22:30:25.121Z,16.87
2017-08-29T22:33:22.764Z,16.10
2017-08-29T22:36:21.432Z,16.07
2017-08-29T22:39:20.244Z,15.03
2017-08-29T22:42:17.780Z,14.37
2017-08-29T22:45:16.648Z,15.60
2017-08-29T22:48:14.271Z,15.97
2017-08-29T22:51:11.795Z,16.40
2017-08-29T22:54:21.781Z,15.60
2017-08-29T22:57:25.382Z,17.03
2017-08-29T23:00:23.275Z,16.60
2017-08-29T23:03:21.007Z,16.23
2017-08-29T23:06:18.592Z,16.63
2017-08-29T23:09:16.196Z,14.97
2017-08-29T23:12:13.911Z,16.43
2017-08-29T23:15:12.429Z,16.80
2017-08-29T23:18:11.151Z,16.57
2017-08-29T23:21:08.774Z,16.20
2017-08-29T23:24:06.097Z,17.13
2017-08-29T23:27:05.056Z,16.57
2017-08-29T23:30:03.728Z,16.27
2017-08-29T23:33:08.308Z,17.40
2017-08-29T23:36:05.881Z,16.27
2017-08-29T23:39:03.552Z,16.57
2017-08-29T23:42:05.110Z,16.20
2017-08-29T23:45:05.650Z,16.70
2017-08-29T23:48:04.168Z,16.30
2017-08-29T23:51:04.630Z,16.73
2017-08-29T23:54:02.053Z,16.00
2017-08-29T23:57:06.793Z,15.90
